Time,TemperatureF,DewpointF,PressureIn,WindDirection,WindDirectionDegrees,WindSpeedMPH,WindSpeedGustMPH,Humidity,HourlyPrecipIn,Conditions,Clouds,dailyrainin,SoftwareType,DateUTC
2013-09-27 00:03:00,46.8,46.0,30.04,WSW,245,0.0,1.0,95,0.00,,,0.00,weatherlink.com 1.10,2013-09-27 04:03:00,
2013-09-27 00:18:00,46.5,45.0,30.04,WSW,243,0.0,1.0,95,0.00,,,0.00,weatherlink.com 1.10,2013-09-27 04:18:00,
2013-09-27 00:33:00,46.0,45.0,30.05,WSW,243,0.0,0.0,95,0.00,,,0.00,weatherlink.com 1.10,2013-09-27 04:33:00,
2013-09-27 00:48:00,45.6,45.0,30.05,WSW,243,0.0,0.0,96,0.00,,,0.00,weatherlink.com 1.10,2013-09-27 04:48:00,
2013-09-27 01:03:00,45.4,44.0,30.05,WSW,240,0.0,0.0,96,0.00,,,0.00,weatherlink.com 1.10,2013-09-27 05:03:00,
2013-09-27 01:18:00,45.1,44.0,30.05,WSW,240,0.0,0.0,96,0.00,,,0.00,weatherlink.com 1.10,2013-09-27 05:18:00,
2013-09-27 01:33:00,44.7,44.0,30.06,WSW,243,0.0,1.0,96,0.00,,,0.00,weatherlink.com 1.10,2013-09-27 05:33:00,
2013-09-27 01:48:00,44.6,44.0,30.06,WSW,243,0.0,1.0,96,0.00,,,0.00,weatherlink.com 1.10,2013-09-27 05:48:00,
2013-09-27 02:03:00,44.5,44.0,30.06,WSW,242,0.0,1.0,96,0.00,,,0.00,weatherlink.com 1.10,2013-09-27 06:03:00,
2013-09-27 02:18:00,44.2,43.0,30.06,WSW,242,0.0,1.0,96,0.00,,,0.00,weatherlink.com 1.10,2013-09-27 06:18:00,
2013-09-27 02:33:00,43.9,43.0,30.07,WSW,242,0.0,0.0,96,0.00,,,0.00,weatherlink.com 1.10,2013-09-27 06:33:00,
2013-09-27 02:48:00,43.8,43.0,30.07,WSW,242,0.0,0.0,96,0.00,,,0.00,weatherlink.com 1.10,2013-09-27 06:48:00,
2013-09-27 03:03:00,44.3,44.0,30.07,WSW,243,0.0,1.0,97,0.00,,,0.00,weatherlink.com 1.10,2013-09-27 07:03:00,
2013-09-27 03:18:00,44.3,44.0,30.07,WSW,245,0.0,0.0,97,0.00,,,0.00,weatherlink.com 1.10,2013-09-27 07:18:00,
2013-09-27 03:33:00,44.4,44.0,30.07,WSW,245,0.0,0.0,97,0.00,,,0.00,weatherlink.com 1.10,2013-09-27 07:33:00,
2013-09-27 03:48:00,44.1,43.0,30.07,WSW,245,0.0,0.0,97,0.00,,,0.00,weatherlink.com 1.10,2013-09-27 07:48:00,
2013-09-27 04:03:00,43.7,43.0,30.07,WSW,245,0.0,0.0,97,0.00,,,0.00,weatherlink.com 1.10,2013-09-27 08:03:00,
2013-09-27 04:18:00,43.3,43.0,30.07,WSW,248,1.0,1.0,97,0.00,,,0.00,weatherlink.com 1.10,2013-09-27 08:18:00,
2013-09-27 04:33:00,42.6,42.0,30.07,WSW,252,0.0,1.0,97,0.00,,,0.00,weatherlink.com 1.10,2013-09-27 08:33:00,
2013-09-27 04:52:00,42.9,42.0,30.07,West,259,1.0,1.0,98,0.01,,,0.01,weatherlink.com 1.10,2013-09-27 08:52:00,
2013-09-27 05:03:00,42.5,42.0,30.07,WSW,255,0.0,1.0,97,0.01,,,0.01,weatherlink.com 1.10,2013-09-27 09:03:00,
2013-09-27 05:18:00,42.1,41.0,30.08,WSW,249,0.0,1.0,97,0.01,,,0.01,weatherlink.com 1.10,2013-09-27 09:18:00,
2013-09-27 05:33:00,42.0,41.0,30.08,WSW,249,0.0,1.0,97,0.01,,,0.01,weatherlink.com 1.10,2013-09-27 09:33:00,
2013-09-27 05:48:00,42.3,42.0,30.08,WSW,249,0.0,1.0,97,0.00,,,0.01,weatherlink.com 1.10,2013-09-27 09:48:00,
2013-09-27 06:03:00,42.7,42.0,30.08,WSW,256,1.0,1.0,97,0.00,,,0.01,weatherlink.com 1.10,2013-09-27 10:03:00,
2013-09-27 06:18:00,41.5,41.0,30.09,WSW,252,0.0,1.0,96,0.00,,,0.01,weatherlink.com 1.10,2013-09-27 10:18:00,
2013-09-27 06:33:00,41.3,41.0,30.09,WSW,252,0.0,0.0,97,0.00,,,0.01,weatherlink.com 1.10,2013-09-27 10:33:00,
2013-09-27 06:48:00,41.5,41.0,30.09,WSW,250,0.0,0.0,97,0.00,,,0.01,weatherlink.com 1.10,2013-09-27 10:48:00,
2013-09-27 07:03:00,41.3,41.0,30.09,WSW,248,0.0,0.0,97,0.00,,,0.01,weatherlink.com 1.10,2013-09-27 11:03:00,
2013-09-27 07:18:00,41.1,40.0,30.09,WSW,248,0.0,1.0,97,0.00,,,0.01,weatherlink.com 1.10,2013-09-27 11:18:00,
2013-09-27 07:33:00,41.2,40.0,30.10,WSW,248,0.0,1.0,97,0.00,,,0.01,weatherlink.com 1.10,2013-09-27 11:33:00,
2013-09-27 07:48:00,41.3,41.0,30.10,WSW,249,0.0,1.0,97,0.00,,,0.01,weatherlink.com 1.10,2013-09-27 11:48:00,
2013-09-27 08:03:00,41.5,41.0,30.10,WSW,250,0.0,0.0,97,0.00,,,0.01,weatherlink.com 1.10,2013-09-27 12:03:00,
2013-09-27 08:18:00,42.5,42.0,30.11,WSW,250,0.0,0.0,97,0.00,,,0.01,weatherlink.com 1.10,2013-09-27 12:18:00,
2013-09-27 08:33:00,44.7,44.0,30.11,WSW,250,0.0,0.0,96,0.00,,,0.01,weatherlink.com 1.10,2013-09-27 12:33:00,
2013-09-27 08:48:00,47.6,46.0,30.11,WSW,250,0.0,0.0,94,0.00,,,0.01,weatherlink.com 1.10,2013-09-27 12:48:00,
2013-09-27 09:04:00,51.3,48.0,30.11,WSW,250,0.0,0.0,89,0.00,,,0.01,weatherlink.com 1.10,2013-09-27 13:04:00,
2013-09-27 09:19:00,57.1,52.0,30.11,WSW,250,0.0,0.0,84,0.00,,,0.01,weatherlink.com 1.10,2013-09-27 13:19:00,
2013-09-27 09:34:00,57.0,53.0,30.11,WSW,250,0.0,0.0,86,0.00,,,0.01,weatherlink.com 1.10,2013-09-27 13:34:00,
2013-09-27 09:49:00,57.0,54.0,30.11,NNE,14,0.0,0.0,88,0.00,,,0.01,weatherlink.com 1.10,2013-09-27 13:49:00,
2013-09-27 10:04:00,57.8,54.0,30.12,East,84,0.0,1.0,87,0.00,,,0.01,weatherlink.com 1.10,2013-09-27 14:04:00,
2013-09-27 10:19:00,58.7,55.0,30.12,East,80,0.0,1.0,87,0.00,,,0.01,weatherlink.com 1.10,2013-09-27 14:19:00,
2013-09-27 10:34:00,59.9,55.0,30.12,East,93,0.0,1.0,84,0.00,,,0.01,weatherlink.com 1.10,2013-09-27 14:34:00,
2013-09-27 10:49:00,61.8,55.0,30.12,SSE,147,2.0,5.0,79,0.00,,,0.01,weatherlink.com 1.10,2013-09-27 14:49:00,
2013-09-27 11:04:00,62.7,55.0,30.11,SE,129,5.0,6.0,75,0.00,,,0.01,weatherlink.com 1.10,2013-09-27 15:04:00,
2013-09-27 11:19:00,63.5,55.0,30.11,SE,132,6.0,8.0,74,0.00,,,0.01,weatherlink.com 1.10,2013-09-27 15:19:00,
2013-09-27 11:34:00,64.3,55.0,30.11,SE,137,6.0,9.0,72,0.00,,,0.01,weatherlink.com 1.10,2013-09-27 15:34:00,
2013-09-27 11:49:00,64.9,55.0,30.11,SSE,159,3.0,8.0,71,0.00,,,0.01,weatherlink.com 1.10,2013-09-27 15:49:00,
2013-09-27 12:04:00,65.8,55.0,30.11,SE,132,6.0,9.0,68,0.00,,,0.01,weatherlink.com 1.10,2013-09-27 16:04:00,
2013-09-27 12:19:00,66.6,56.0,30.11,SSE,156,4.0,9.0,68,0.00,,,0.01,weatherlink.com 1.10,2013-09-27 16:19:00,
2013-09-27 12:34:00,67.1,55.0,30.10,SSE,167,7.0,9.0,66,0.00,,,0.01,weatherlink.com 1.10,2013-09-27 16:34:00,
2013-09-27 12:49:00,67.6,56.0,30.10,SE,131,6.0,8.0,66,0.00,,,0.01,weatherlink.com 1.10,2013-09-27 16:49:00,
2013-09-27 13:04:00,68.0,55.0,30.10,SE,142,8.0,9.0,64,0.00,,,0.01,weatherlink.com 1.10,2013-09-27 17:04:00,
2013-09-27 13:19:00,68.2,55.0,30.10,SE,141,7.0,10.0,64,0.00,,,0.01,weatherlink.com 1.10,2013-09-27 17:19:00,
2013-09-27 13:34:00,68.6,54.0,30.09,SE,145,7.0,9.0,60,0.00,,,0.01,weatherlink.com 1.10,2013-09-27 17:34:00,
2013-09-27 13:49:00,69.0,54.0,30.09,SSE,161,5.0,9.0,60,0.00,,,0.01,weatherlink.com 1.10,2013-09-27 17:49:00,
2013-09-27 14:04:00,69.2,55.0,30.08,SE,131,6.0,9.0,60,0.00,,,0.01,weatherlink.com 1.10,2013-09-27 18:04:00,
2013-09-27 14:19:00,68.8,55.0,30.08,SE,138,5.0,8.0,62,0.00,,,0.01,weatherlink.com 1.10,2013-09-27 18:19:00,
2013-09-27 14:34:00,69.3,56.0,30.07,SSW,194,5.0,9.0,63,0.00,,,0.01,weatherlink.com 1.10,2013-09-27 18:34:00,
2013-09-27 14:49:00,69.1,54.0,30.07,SE,124,5.0,9.0,58,0.00,,,0.01,weatherlink.com 1.10,2013-09-27 18:49:00,
2013-09-27 15:04:00,69.6,54.0,30.07,SSE,155,5.0,10.0,58,0.00,,,0.01,weatherlink.com 1.10,2013-09-27 19:04:00,
2013-09-27 15:19:00,69.6,54.0,30.07,ESE,104,6.0,11.0,57,0.00,,,0.01,weatherlink.com 1.10,2013-09-27 19:19:00,
2013-09-27 15:34:00,69.5,56.0,30.07,SE,129,6.0,10.0,62,0.00,,,0.01,weatherlink.com 1.10,2013-09-27 19:34:00,
2013-09-27 15:49:00,69.4,55.0,30.07,SSE,153,6.0,10.0,60,0.00,,,0.01,weatherlink.com 1.10,2013-09-27 19:49:00,
2013-09-27 16:04:00,69.2,55.0,30.07,SE,131,7.0,10.0,61,0.00,,,0.01,weatherlink.com 1.10,2013-09-27 20:04:00,
2013-09-27 16:19:00,69.2,54.0,30.06,ESE,121,7.0,10.0,59,0.00,,,0.01,weatherlink.com 1.10,2013-09-27 20:19:00,
2013-09-27 16:34:00,69.1,54.0,30.06,ESE,110,8.0,10.0,60,0.00,,,0.01,weatherlink.com 1.10,2013-09-27 20:34:00,
2013-09-27 16:49:00,69.0,54.0,30.05,SE,129,6.0,11.0,60,0.00,,,0.01,weatherlink.com 1.10,2013-09-27 20:49:00,
2013-09-27 17:04:00,68.6,55.0,30.06,East,101,3.0,10.0,62,0.00,,,0.01,weatherlink.com 1.10,2013-09-27 21:04:00,
2013-09-27 17:20:00,68.6,54.0,30.05,SE,135,4.0,9.0,61,0.00,,,0.01,weatherlink.com 1.10,2013-09-27 21:20:00,
2013-09-27 17:34:00,68.1,54.0,30.05,SE,129,4.0,10.0,60,0.00,,,0.01,weatherlink.com 1.10,2013-09-27 21:34:00,
2013-09-27 17:49:00,67.5,52.0,30.05,South,173,5.0,9.0,57,0.00,,,0.01,weatherlink.com 1.10,2013-09-27 21:49:00,
2013-09-27 18:05:00,66.6,53.0,30.05,South,169,2.0,6.0,61,0.00,,,0.01,weatherlink.com 1.10,2013-09-27 22:05:00,
2013-09-27 18:20:00,66.0,54.0,30.05,SSE,156,3.0,6.0,66,0.00,,,0.01,weatherlink.com 1.10,2013-09-27 22:20:00,
2013-09-27 18:35:00,65.4,54.0,30.05,SE,136,4.0,7.0,67,0.00,,,0.01,weatherlink.com 1.10,2013-09-27 22:35:00,
2013-09-27 18:50:00,64.9,55.0,30.05,SE,136,1.0,8.0,71,0.00,,,0.01,weatherlink.com 1.10,2013-09-27 22:50:00,
2013-09-27 19:05:00,64.0,54.0,30.05,SW,226,0.0,4.0,70,0.00,,,0.01,weatherlink.com 1.10,2013-09-27 23:05:00,
2013-09-27 19:20:00,62.1,54.0,30.04,SW,214,0.0,0.0,76,0.00,,,0.01,weatherlink.com 1.10,2013-09-27 23:20:00,
2013-09-27 19:35:00,59.9,54.0,30.04,WSW,239,0.0,0.0,81,0.00,,,0.01,weatherlink.com 1.10,2013-09-27 23:35:00,
2013-09-27 19:50:00,58.4,54.0,30.04,WSW,240,0.0,0.0,84,0.00,,,0.01,weatherlink.com 1.10,2013-09-27 23:50:00,
2013-09-27 20:05:00,57.3,54.0,30.04,WSW,240,0.0,0.0,87,0.00,,,0.01,weatherlink.com 1.10,2013-09-28 00:05:00,
2013-09-27 20:20:00,56.8,53.0,30.04,WSW,240,0.0,0.0,88,0.00,,,0.01,weatherlink.com 1.10,2013-09-28 00:20:00,
2013-09-27 20:35:00,56.1,53.0,30.04,West,264,0.0,0.0,89,0.00,,,0.01,weatherlink.com 1.10,2013-09-28 00:35:00,
2013-09-27 20:50:00,55.9,53.0,30.04,West,264,0.0,0.0,90,0.00,,,0.01,weatherlink.com 1.10,2013-09-28 00:50:00,
2013-09-27 21:05:00,55.4,53.0,30.04,WNW,290,0.0,0.0,90,0.00,,,0.01,weatherlink.com 1.10,2013-09-28 01:05:00,
2013-09-27 21:20:00,54.9,52.0,30.04,WNW,285,0.0,0.0,91,0.00,,,0.01,weatherlink.com 1.10,2013-09-28 01:20:00,
2013-09-27 21:35:00,54.8,52.0,30.05,SW,218,0.0,0.0,91,0.00,,,0.01,weatherlink.com 1.10,2013-09-28 01:35:00,
2013-09-27 21:50:00,54.3,52.0,30.05,SW,229,0.0,1.0,92,0.00,,,0.01,weatherlink.com 1.10,2013-09-28 01:50:00,
2013-09-27 22:05:00,54.9,52.0,30.05,SW,219,0.0,1.0,91,0.00,,,0.01,weatherlink.com 1.10,2013-09-28 02:05:00,
2013-09-27 22:20:00,55.6,53.0,30.05,SE,145,0.0,2.0,91,0.00,,,0.01,weatherlink.com 1.10,2013-09-28 02:20:00,
2013-09-27 22:35:00,56.7,54.0,30.05,SE,135,0.0,2.0,90,0.00,,,0.01,weatherlink.com 1.10,2013-09-28 02:35:00,
2013-09-27 22:50:00,57.4,55.0,30.05,ESE,111,0.0,4.0,90,0.00,,,0.01,weatherlink.com 1.10,2013-09-28 02:50:00,
2013-09-27 23:05:00,57.8,55.0,30.05,ESE,114,1.0,3.0,90,0.00,,,0.01,weatherlink.com 1.10,2013-09-28 03:05:00,
2013-09-27 23:20:00,58.2,55.0,30.05,ESE,121,5.0,5.0,89,0.00,,,0.01,weatherlink.com 1.10,2013-09-28 03:20:00,
2013-09-27 23:35:00,58.6,55.0,30.05,ESE,112,4.0,7.0,89,0.00,,,0.01,weatherlink.com 1.10,2013-09-28 03:35:00,
2013-09-27 23:50:00,58.9,56.0,30.05,ESE,119,1.0,6.0,89,0.00,,,0.01,weatherlink.com 1.10,2013-09-28 03:50:00,